createdAt,value
2017-01-24T06:36:21.371Z,80.74
2017-01-24T06:37:31.727Z,80.74
2017-01-24T06:38:42.030Z,80.64
2017-01-24T06:39:51.937Z,80.74
2017-01-24T06:41:01.841Z,81.12
2017-01-24T06:42:12.213Z,80.83
2017-01-24T06:43:22.536Z,81.3
2017-01-24T06:44:32.434Z,81.02
2017-01-24T06:45:42.312Z,80.83
2017-01-24T06:46:52.675Z,80.74
2017-01-24T06:48:02.582Z,80.83
2017-01-24T06:49:12.094Z,80.74
2017-01-24T06:50:22.387Z,80.74
2017-01-24T06:51:32.682Z,80.93
2017-01-24T06:52:43.018Z,81.02
2017-01-24T06:53:53.331Z,80.64
2017-01-24T06:55:03.279Z,80.83
2017-01-24T06:56:13.180Z,80.83
2017-01-24T06:57:23.488Z,80.74
2017-01-24T06:58:33.391Z,80.83
2017-01-24T06:59:43.303Z,81.02
2017-01-24T07:00:53.613Z,81.02
2017-01-24T07:02:03.915Z,81.4
2017-01-24T07:03:14.226Z,81.3
2017-01-24T07:04:25.165Z,81.68
2017-01-24T07:05:35.643Z,81.21
2017-01-24T07:06:45.541Z,81.21
2017-01-24T07:07:55.849Z,81.21
2017-01-24T07:09:06.128Z,81.68
2017-01-24T07:10:15.620Z,81.68
2017-01-24T07:11:25.908Z,81.59
2017-01-24T07:12:36.278Z,81.21
2017-01-24T07:13:46.193Z,81.21
2017-01-24T07:14:56.882Z,81.49
2017-01-24T07:16:07.185Z,80.93
2017-01-24T07:17:17.514Z,80.83
2017-01-24T07:18:27.816Z,80.93
2017-01-24T07:19:37.805Z,81.59
2017-01-24T07:20:48.129Z,81.21
2017-01-24T07:21:58.440Z,81.49
2017-01-24T07:23:08.743Z,81.4
2017-01-24T07:24:18.648Z,81.3
2017-01-24T07:25:28.542Z,81.49
2017-01-24T07:26:38.479Z,81.68
2017-01-24T07:27:47.566Z,81.49
2017-01-24T07:28:57.970Z,81.4
2017-01-24T07:30:07.502Z,81.21
2017-01-24T07:31:17.048Z,81.12
2017-01-24T07:32:26.949Z,81.49
2017-01-24T07:33:36.865Z,81.49
2017-01-24T07:34:47.169Z,81.21
2017-01-24T07:35:57.105Z,81.87
2017-01-24T07:37:07.452Z,81.4
2017-01-24T07:38:17.745Z,82.15
2017-01-24T07:39:27.259Z,81.87
2017-01-24T07:40:37.143Z,81.96
2017-01-24T07:41:47.437Z,81.96
2017-01-24T07:42:57.747Z,81.96
2017-01-24T07:44:08.037Z,82.06
2017-01-24T07:45:17.584Z,81.96
2017-01-24T07:46:27.897Z,82.06
2017-01-24T07:47:37.787Z,81.96
2017-01-24T07:48:47.686Z,82.15
2017-01-24T07:49:57.993Z,82.06
2017-01-24T07:51:07.930Z,82.25
2017-01-24T07:52:18.233Z,82.44
2017-01-24T07:53:28.119Z,82.34
2017-01-24T07:54:38.017Z,82.15
2017-01-24T07:55:48.305Z,82.25
2017-01-24T07:56:58.637Z,82.44
2017-01-24T07:58:08.959Z,82.34
2017-01-24T07:59:19.265Z,82.34
2017-01-24T08:00:29.732Z,82.34
2017-01-24T08:01:39.631Z,81.96
2017-01-24T08:02:50.020Z,81.96
2017-01-24T08:04:00.315Z,82.06
2017-01-24T08:05:10.637Z,82.15
2017-01-24T08:06:20.958Z,82.15
2017-01-24T08:07:31.258Z,82.25
2017-01-24T08:08:41.574Z,82.34
2017-01-24T08:09:51.886Z,82.15
2017-01-24T08:11:02.225Z,82.25
2017-01-24T08:12:12.528Z,82.06
2017-01-24T08:13:22.860Z,81.96
2017-01-24T08:14:33.213Z,82.06
2017-01-24T08:15:43.744Z,82.25
2017-01-24T08:16:54.041Z,81.96
2017-01-24T08:18:04.358Z,82.34
2017-01-24T08:19:14.762Z,82.15
2017-01-24T08:20:25.181Z,82.44
2017-01-24T08:21:35.488Z,82.25
2017-01-24T08:22:45.791Z,82.34
2017-01-24T08:23:55.275Z,82.34
2017-01-24T08:25:05.562Z,82.34
2017-01-24T08:26:15.995Z,82.25
2017-01-24T08:27:26.387Z,82.15
2017-01-24T08:28:36.714Z,82.34
2017-01-24T08:29:47.057Z,82.25
2017-01-24T08:30:57.379Z,82.06
2017-01-24T08:32:07.685Z,82.25
2017-01-24T08:33:17.988Z,82.06
2017-01-24T08:34:28.276Z,81.96
2017-01-24T08:35:38.164Z,82.15
2017-01-24T08:36:48.455Z,82.2
2017-01-24T08:37:58.817Z,82.01
2017-01-24T08:39:08.732Z,82.1
2017-01-24T08:40:19.096Z,82.1
2017-01-24T08:41:29.406Z,81.92
2017-01-24T08:42:39.758Z,81.82
2017-01-24T08:43:50.157Z,81.82
2017-01-24T08:45:00.493Z,82.1
2017-01-24T08:46:10.831Z,82.1
2017-01-24T08:47:21.184Z,82.01
2017-01-24T08:48:31.492Z,82.29
2017-01-24T08:49:41.816Z,82.1
2017-01-24T08:50:52.144Z,82.2
2017-01-24T08:52:02.447Z,82.29
2017-01-24T08:53:12.742Z,81.44
2017-01-24T08:54:23.070Z,81.25
2017-01-24T08:55:33.371Z,81.63
2017-01-24T08:56:43.712Z,81.63
2017-01-24T08:57:54.100Z,81.53
2017-01-24T08:59:04.407Z,81.25
2017-01-24T09:00:14.727Z,81.72
2017-01-24T09:01:25.108Z,81.72
2017-01-24T09:02:35.005Z,81.53
2017-01-24T09:03:45.331Z,81.06
2017-01-24T09:04:55.658Z,81.06
2017-01-24T09:06:05.955Z,80.96
2017-01-24T09:07:15.858Z,80.87
2017-01-24T09:08:26.209Z,81.34
2017-01-24T09:09:36.549Z,81.15
2017-01-24T09:10:46.863Z,80.96
2017-01-24T09:11:57.208Z,81.06
2017-01-24T09:13:07.519Z,81.34
2017-01-24T09:14:17.869Z,80.96
2017-01-24T09:15:28.183Z,80.77
2017-01-24T09:16:38.480Z,80.77
2017-01-24T09:17:47.976Z,80.77
2017-01-24T09:18:58.301Z,80.77
2017-01-24T09:20:08.650Z,81.15
2017-01-24T09:21:18.999Z,80.49
2017-01-24T09:22:29.282Z,80.4
2017-01-24T09:23:39.651Z,80.4
2017-01-24T09:24:49.940Z,80.3
2017-01-24T09:26:00.236Z,81.06
2017-01-24T09:27:10.643Z,81.15
2017-01-24T09:28:20.963Z,80.49
2017-01-24T09:29:31.278Z,80.87
2017-01-24T09:30:41.668Z,80.96
2017-01-24T09:31:51.982Z,81.06
2017-01-24T09:33:01.891Z,80.87
2017-01-24T09:34:12.246Z,80.3
2017-01-24T09:35:22.593Z,81.15
2017-01-24T09:36:32.506Z,80.96
2017-01-24T09:37:42.842Z,80.87
2017-01-24T09:38:53.159Z,80.3
2017-01-24T09:40:03.071Z,80.96
2017-01-24T09:41:13.447Z,80.77
2017-01-24T09:42:23.749Z,80.77
2017-01-24T09:43:34.044Z,81.06
2017-01-24T09:44:44.383Z,80.77
2017-01-24T09:45:54.724Z,80.77
2017-01-24T09:47:04.627Z,80.96
2017-01-24T09:48:14.692Z,80.3
2017-01-24T09:49:24.603Z,80.77
2017-01-24T09:50:34.901Z,80.87
2017-01-24T09:51:45.213Z,80.58
2017-01-24T09:52:55.541Z,80.58
2017-01-24T09:54:05.854Z,80.49
2017-01-24T09:55:16.159Z,80.49
2017-01-24T09:56:26.078Z,80.4
2017-01-24T09:57:36.554Z,80.21
2017-01-24T09:58:46.869Z,81.06
2017-01-24T09:59:57.167Z,80.96
2017-01-24T10:01:07.553Z,80.3
2017-01-24T10:02:17.864Z,80.3
2017-01-24T10:03:28.175Z,80.3
2017-01-24T10:04:38.482Z,80.4
2017-01-24T10:05:48.792Z,80.21
2017-01-24T10:06:58.718Z,80.21
2017-01-24T10:08:09.018Z,80.4
2017-01-24T10:09:19.376Z,80.3
2017-01-24T10:10:29.789Z,80.77
2017-01-24T10:11:39.300Z,80.58
2017-01-24T10:12:49.641Z,80.77
2017-01-24T10:13:59.927Z,80.96
2017-01-24T10:15:10.218Z,80.49
2017-01-24T10:16:20.121Z,80.96
2017-01-24T10:17:30.418Z,80.87
2017-01-24T10:18:40.772Z,80.96
2017-01-24T10:19:51.112Z,80.58
2017-01-24T10:21:01.023Z,80.77
2017-01-24T10:22:11.329Z,80.77
2017-01-24T10:23:21.685Z,80.68
2017-01-24T10:24:31.562Z,81.15
2017-01-24T10:25:41.883Z,80.87
2017-01-24T10:26:52.236Z,80.3
2017-01-24T10:28:02.165Z,80.58
2017-01-24T10:29:12.460Z,80.49
2017-01-24T10:30:22.768Z,80.58
2017-01-24T10:31:33.081Z,80.3
2017-01-24T10:32:43.013Z,80.3
2017-01-24T10:33:53.325Z,80.49
2017-01-24T10:35:03.625Z,80.4
2017-01-24T10:36:13.972Z,80.11
2017-01-24T10:37:24.287Z,80.49
2017-01-24T10:38:34.572Z,80.58
2017-01-24T10:39:44.876Z,80.49
2017-01-24T10:40:55.180Z,79.93
2017-01-24T10:42:05.496Z,80.11
2017-01-24T10:43:15.849Z,80.02
2017-01-24T10:44:25.810Z,80.02
2017-01-24T10:45:36.091Z,79.93
2017-01-24T10:46:46.056Z,80.02
2017-01-24T10:47:56.353Z,79.74
2017-01-24T10:49:06.653Z,79.64
2017-01-24T10:50:16.989Z,79.07
2017-01-24T10:51:26.876Z,78.98
2017-01-24T10:52:37.182Z,79.26
2017-01-24T10:53:47.514Z,78.79
2017-01-24T10:54:57.975Z,79.17
2017-01-24T10:56:08.278Z,79.17
2017-01-24T10:57:18.563Z,79.17
2017-01-24T10:58:28.847Z,79.07
2017-01-24T10:59:39.166Z,79.26
2017-01-24T11:00:49.476Z,79.07
2017-01-24T11:01:59.798Z,79.36
2017-01-24T11:03:10.108Z,78.79
2017-01-24T11:04:20.446Z,79.07
2017-01-24T11:05:30.762Z,79.17
2017-01-24T11:06:41.065Z,78.79
2017-01-24T11:07:51.378Z,79.17
2017-01-24T11:09:01.722Z,78.98
2017-01-24T11:10:12.025Z,79.07
2017-01-24T11:11:22.353Z,79.36
2017-01-24T11:12:32.733Z,79.07
2017-01-24T11:13:43.053Z,79.07
2017-01-24T11:14:53.533Z,78.69
2017-01-24T11:16:03.843Z,78.69
2017-01-24T11:17:14.284Z,79.07
2017-01-24T11:18:24.616Z,79.26
2017-01-24T11:19:34.941Z,79.07
2017-01-24T11:20:44.884Z,79.74
2017-01-24T11:21:55.333Z,79.36
2017-01-24T11:23:05.665Z,79.07
2017-01-24T11:24:15.994Z,79.07
2017-01-24T11:25:26.319Z,79.07
2017-01-24T11:26:36.626Z,79.36
2017-01-24T11:27:46.981Z,79.17
2017-01-24T11:28:57.284Z,79.17
2017-01-24T11:30:07.200Z,79.07
2017-01-24T11:31:17.533Z,79.17
2017-01-24T11:32:27.843Z,79.45
2017-01-24T11:33:38.136Z,79.83
2017-01-24T11:34:48.447Z,79.55
2017-01-24T11:35:58.817Z,79.83
2017-01-24T11:37:09.341Z,79.83
2017-01-24T11:38:19.261Z,79.74
2017-01-24T11:39:29.564Z,79.93
2017-01-24T11:40:39.066Z,80.02
2017-01-24T11:41:49.504Z,80.11
2017-01-24T11:42:59.834Z,79.93
2017-01-24T11:44:10.129Z,79.83
2017-01-24T11:45:20.453Z,79.83
2017-01-24T11:46:30.781Z,79.45
2017-01-24T11:47:41.109Z,79.93
2017-01-24T11:48:51.045Z,79.55
2017-01-24T11:50:01.006Z,79.55
2017-01-24T11:51:11.318Z,79.83
2017-01-24T11:52:21.251Z,79.74
2017-01-24T11:53:31.655Z,79.74
2017-01-24T11:54:41.972Z,79.93
2017-01-24T11:55:51.856Z,80.02
2017-01-24T11:57:01.768Z,80.02
2017-01-24T11:58:12.084Z,80.02
2017-01-24T11:59:21.988Z,80.49
2017-01-24T12:00:32.316Z,79.93
2017-01-24T12:01:42.634Z,79.74
2017-01-24T12:02:52.949Z,80.11
2017-01-24T12:04:03.348Z,79.83
2017-01-24T12:05:13.637Z,79.55
2017-01-24T12:06:23.954Z,79.55
2017-01-24T12:07:34.302Z,79.55
2017-01-24T12:08:44.217Z,79.45
2017-01-24T12:09:54.580Z,79.64
2017-01-24T12:11:04.872Z,80.02
2017-01-24T12:12:15.161Z,79.64
2017-01-24T12:13:25.050Z,79.83
2017-01-24T12:14:35.031Z,79.64
2017-01-24T12:15:45.000Z,79.74
2017-01-24T12:16:55.314Z,79.83
2017-01-24T12:18:05.230Z,79.93
2017-01-24T12:19:15.139Z,79.74
2017-01-24T12:20:25.440Z,79.74
2017-01-24T12:21:35.744Z,79.74
2017-01-24T12:22:46.048Z,79.45
2017-01-24T12:23:56.350Z,79.64
2017-01-24T12:25:06.657Z,79.55
2017-01-24T12:26:17.051Z,79.74
2017-01-24T12:27:27.006Z,79.55
2017-01-24T12:28:37.319Z,79.64
2017-01-24T12:29:47.632Z,79.74
2017-01-24T12:30:57.559Z,79.83
2017-01-24T12:32:07.903Z,79.93
2017-01-24T12:33:18.207Z,79.83
2017-01-24T12:34:28.522Z,80.02
2017-01-24T12:35:38.938Z,80.11
2017-01-24T12:36:49.277Z,80.11
2017-01-24T12:37:59.615Z,80.58
2017-01-24T12:39:09.960Z,80.58
2017-01-24T12:40:19.657Z,80.58
2017-01-24T12:41:29.553Z,80.58
2017-01-24T12:42:39.844Z,80.49
2017-01-24T12:43:50.135Z,80.58
2017-01-24T12:45:00.450Z,80.58
2017-01-24T12:46:10.740Z,80.3
2017-01-24T12:47:21.062Z,80.4
2017-01-24T12:48:31.379Z,80.4
2017-01-24T12:49:41.703Z,80.4
2017-01-24T12:50:52.010Z,80.4
2017-01-24T12:52:02.385Z,80.49
2017-01-24T12:53:12.294Z,80.58
2017-01-24T12:54:22.604Z,80.4
2017-01-24T12:55:32.967Z,80.4
2017-01-24T12:56:43.285Z,80.49
2017-01-24T12:57:53.609Z,80.4
2017-01-24T12:59:03.511Z,80.49
2017-01-24T13:00:13.416Z,80.11
2017-01-24T13:01:23.856Z,80.4
2017-01-24T13:02:34.168Z,80.58
2017-01-24T13:03:44.501Z,80.11
2017-01-24T13:04:54.410Z,80.02
2017-01-24T13:06:04.781Z,80.02
2017-01-24T13:07:14.751Z,79.93
2017-01-24T13:08:25.090Z,79.93
2017-01-24T13:09:35.515Z,80.11
2017-01-24T13:10:45.843Z,79.93
2017-01-24T13:11:55.825Z,80.02
2017-01-24T13:13:06.211Z,80.02
2017-01-24T13:14:16.134Z,80.21
2017-01-24T13:15:25.625Z,79.93
2017-01-24T13:16:35.942Z,79.83
2017-01-24T13:17:46.436Z,79.55
2017-01-24T13:18:56.811Z,79.93
2017-01-24T13:20:07.135Z,79.83
2017-01-24T13:21:17.431Z,80.02
2017-01-24T13:22:27.732Z,79.83
2017-01-24T13:23:37.639Z,79.36
2017-01-24T13:24:47.579Z,79.64
2017-01-24T13:25:57.961Z,80.3
2017-01-24T13:27:07.876Z,80.58
2017-01-24T13:28:18.183Z,80.49
2017-01-24T13:29:27.719Z,80.49
2017-01-24T13:30:37.619Z,80.96
2017-01-24T13:31:47.535Z,80.3
2017-01-24T13:32:57.047Z,80.49
2017-01-24T13:34:06.568Z,80.49
2017-01-24T13:35:16.901Z,80.58
2017-01-24T13:36:26.841Z,80.3
2017-01-24T13:37:37.210Z,80.49
2017-01-24T13:38:47.232Z,80.3
2017-01-24T13:39:57.599Z,80.58
2017-01-24T13:41:07.505Z,80.49
2017-01-24T13:42:17.801Z,80.58
2017-01-24T13:43:27.712Z,80.3
2017-01-24T13:44:37.632Z,80.87
2017-01-24T13:45:47.956Z,80.58
2017-01-24T13:46:57.859Z,80.77
2017-01-24T13:48:08.178Z,80.93
2017-01-24T13:49:18.477Z,80.07
2017-01-24T13:50:28.842Z,80.58
2017-01-24T13:51:38.756Z,81.02
2017-01-24T13:52:49.086Z,80.74
2017-01-24T13:53:59.378Z,80.77
2017-01-24T13:55:09.261Z,80.64
2017-01-24T13:56:19.301Z,80.93
2017-01-24T13:57:29.209Z,80.74
2017-01-24T13:58:39.100Z,80.93
2017-01-24T13:59:48.635Z,80.74
2017-01-24T14:00:58.979Z,80.74
2017-01-24T14:02:08.863Z,80.55
2017-01-24T14:03:19.183Z,80.74
2017-01-24T14:04:29.557Z,80.58
2017-01-24T14:05:39.503Z,80.83
2017-01-24T14:06:49.406Z,80.93
2017-01-24T14:07:59.703Z,80.93
2017-01-24T14:09:09.606Z,81.12
2017-01-24T14:10:19.963Z,81.12
2017-01-24T14:11:29.864Z,81.21
2017-01-24T14:12:40.179Z,81.21
2017-01-24T14:13:50.512Z,81.21
2017-01-24T14:15:00.810Z,81.12
2017-01-24T14:16:10.703Z,81.02
2017-01-24T14:17:20.615Z,81.02
2017-01-24T14:18:30.647Z,81.12
2017-01-24T14:19:40.545Z,81.21
2017-01-24T14:20:50.462Z,81.12
2017-01-24T14:22:00.830Z,80.93
2017-01-24T14:23:10.721Z,80.93
2017-01-24T14:24:21.148Z,80.83
2017-01-24T14:25:31.469Z,81.12
2017-01-24T14:26:41.783Z,81.21
2017-01-24T14:27:51.670Z,80.93
2017-01-24T14:29:02.000Z,80.64
2017-01-24T14:30:12.078Z,81.02
2017-01-24T14:31:22.440Z,80.93
2017-01-24T14:32:32.315Z,80.93
2017-01-24T14:33:42.635Z,80.74
2017-01-24T14:34:53.018Z,80.93
2017-01-24T14:36:03.337Z,81.4
2017-01-24T14:37:13.637Z,81.21
2017-01-24T14:38:23.558Z,81.12
2017-01-24T14:39:34.019Z,80.74
2017-01-24T14:40:43.630Z,80.74
2017-01-24T14:41:53.502Z,80.74
2017-01-24T14:43:03.828Z,81.06
2017-01-24T14:44:14.211Z,80.93
2017-01-24T14:45:24.136Z,81.02
2017-01-24T14:46:34.478Z,81.3
2017-01-24T14:47:44.774Z,80.83
2017-01-24T14:48:55.096Z,80.83
2017-01-24T14:50:05.401Z,80.93
2017-01-24T14:51:15.304Z,80.83
2017-01-24T14:52:25.223Z,81.12
2017-01-24T14:53:35.552Z,81.3
2017-01-24T14:54:45.858Z,81.21
2017-01-24T14:55:55.763Z,81.21
2017-01-24T14:57:05.319Z,80.93
2017-01-24T14:58:15.635Z,80.93
2017-01-24T14:59:26.007Z,81.49
2017-01-24T15:00:35.895Z,81.49
2017-01-24T15:01:46.228Z,81.02
2017-01-24T15:02:56.142Z,81.12
2017-01-24T15:04:06.462Z,81.02
2017-01-24T15:05:15.932Z,81.12
2017-01-24T15:06:25.836Z,81.12
2017-01-24T15:07:36.133Z,81.21
2017-01-24T15:08:46.011Z,80.93
2017-01-24T15:09:56.342Z,81.12
2017-01-24T15:11:06.272Z,80.93
2017-01-24T15:12:16.171Z,80.64
2017-01-24T15:13:26.508Z,80.83
2017-01-24T15:14:36.799Z,81.02
2017-01-24T15:15:46.750Z,80.36
2017-01-24T15:16:56.641Z,80.36
2017-01-24T15:18:06.568Z,80.68
2017-01-24T15:19:16.887Z,80.74
2017-01-24T15:20:27.193Z,80.64
2017-01-24T15:21:36.710Z,80.83
2017-01-24T15:22:47.004Z,80.74
2017-01-24T15:23:57.307Z,80.93
2017-01-24T15:25:07.211Z,80.64
2017-01-24T15:26:16.753Z,80.74
2017-01-24T15:27:26.651Z,80.93
2017-01-24T15:28:35.752Z,80.83
2017-01-24T15:29:45.000Z,80.55
2017-01-24T15:30:54.533Z,80.64
2017-01-24T15:32:04.545Z,80.74
2017-01-24T15:33:13.654Z,80.83
2017-01-24T15:34:22.349Z,81.3
2017-01-24T15:35:31.464Z,81.12
2017-01-24T15:36:41.391Z,80.74
2017-01-24T15:37:50.897Z,80.74
2017-01-24T15:38:59.583Z,80.93
2017-01-24T15:40:08.685Z,80.93
2017-01-24T15:41:18.210Z,80.93
2017-01-24T15:42:27.708Z,81.12
2017-01-24T15:43:36.390Z,80.93
2017-01-24T15:44:46.290Z,80.93
2017-01-24T15:45:55.467Z,80.83
2017-01-24T15:47:04.605Z,80.83
2017-01-24T15:48:15.582Z,81.3
2017-01-24T15:49:24.284Z,80.93
2017-01-24T15:50:33.076Z,80.93
2017-01-24T15:51:42.643Z,80.93
2017-01-24T15:52:51.775Z,80.83
2017-01-24T15:54:00.473Z,80.74
2017-01-24T15:55:09.581Z,80.64
2017-01-24T15:56:19.087Z,80.93
2017-01-24T15:57:28.201Z,81.02
2017-01-24T15:58:37.304Z,80.93
2017-01-24T15:59:47.773Z,81.3
2017-01-24T16:00:56.883Z,81.12
2017-01-24T16:02:06.139Z,81.02
2017-01-24T16:03:14.866Z,80.93
2017-01-24T16:04:23.974Z,80.74
2017-01-24T16:05:33.106Z,80.74
2017-01-24T16:06:42.213Z,80.74
2017-01-24T16:07:50.909Z,80.55
2017-01-24T16:09:00.031Z,80.64
2017-01-24T16:10:09.294Z,80.93
2017-01-24T16:11:18.821Z,80.83
2017-01-24T16:12:28.343Z,80.83
2017-01-24T16:13:37.470Z,81.4
2017-01-24T16:14:46.566Z,80.93
2017-01-24T16:15:55.269Z,80.93
2017-01-24T16:17:03.979Z,80.74
2017-01-24T16:18:13.130Z,80.93
2017-01-24T16:19:22.656Z,80.55
2017-01-24T16:20:31.825Z,80.83
2017-01-24T16:21:40.532Z,80.64
2017-01-24T16:22:49.254Z,80.64
2017-01-24T16:23:57.987Z,80.74
2017-01-24T16:25:07.147Z,81.12
2017-01-24T16:26:15.980Z,81.02
2017-01-24T16:27:25.527Z,80.83
2017-01-24T16:28:35.095Z,80.64
2017-01-24T16:29:43.822Z,80.64
2017-01-24T16:30:52.536Z,80.93
2017-01-24T16:32:02.108Z,81.02
2017-01-24T16:33:11.654Z,80.83
2017-01-24T16:34:20.348Z,80.83
2017-01-24T16:35:29.049Z,80.26
2017-01-24T16:36:37.757Z,80.36
2017-01-24T16:37:46.956Z,80.64
2017-01-24T16:38:56.503Z,80.83
2017-01-24T16:40:05.644Z,80.07
2017-01-24T16:41:15.617Z,80.74
2017-01-24T16:42:25.229Z,80.83
2017-01-24T16:43:34.372Z,79.98
2017-01-24T16:44:44.012Z,80.17
2017-01-24T16:45:53.109Z,80.74
2017-01-24T16:47:02.239Z,80.93
2017-01-24T16:48:11.362Z,81.02
2017-01-24T16:49:20.923Z,81.02
2017-01-24T16:50:29.626Z,80.74
2017-01-24T16:51:38.341Z,80.74
2017-01-24T16:52:47.454Z,81.12
2017-01-24T16:53:56.559Z,80.93
2017-01-24T16:55:05.674Z,80.36
2017-01-24T16:56:14.923Z,80.36
2017-01-24T16:57:24.494Z,80.26
2017-01-24T16:58:34.084Z,80.83
2017-01-24T16:59:44.440Z,80.45
2017-01-24T17:00:54.761Z,80.55
2017-01-24T17:02:04.692Z,79.98
2017-01-24T17:03:15.105Z,79.5
2017-01-24T17:04:25.045Z,79.69
2017-01-24T17:05:34.983Z,79.69
2017-01-24T17:06:45.338Z,79.6
2017-01-24T17:07:55.727Z,79.88
2017-01-24T17:09:05.721Z,80.07
2017-01-24T17:10:16.076Z,79.88
2017-01-24T17:11:26.451Z,80.17
2017-01-24T17:12:36.815Z,79.79
2017-01-24T17:13:47.170Z,79.88
2017-01-24T17:14:57.525Z,79.98
2017-01-24T17:16:07.857Z,79.69
2017-01-24T17:17:18.191Z,79.69
2017-01-24T17:18:28.165Z,79.6
2017-01-24T17:19:38.532Z,79.79
2017-01-24T17:20:48.472Z,79.5
2017-01-24T17:21:58.795Z,79.6
2017-01-24T17:23:08.761Z,79.5
2017-01-24T17:24:18.706Z,79.88
2017-01-24T17:25:29.063Z,79.88
2017-01-24T17:26:39.431Z,79.79
2017-01-24T17:27:49.350Z,79.6
2017-01-24T17:28:58.133Z,79.6
2017-01-24T17:30:06.886Z,79.03
2017-01-24T17:31:16.030Z,79.13
2017-01-24T17:32:25.628Z,79.22
2017-01-24T17:33:34.766Z,78.94
2017-01-24T17:34:43.504Z,79.03
2017-01-24T17:35:52.238Z,78.94
2017-01-24T17:37:01.384Z,79.13
2017-01-24T17:38:10.977Z,78.88
2017-01-24T17:39:19.717Z,78.94
2017-01-24T17:40:28.905Z,78.94
2017-01-24T17:41:37.657Z,78.85
2017-01-24T17:42:46.813Z,79.03
2017-01-24T17:43:55.976Z,79.13
2017-01-24T17:45:04.729Z,78.94
2017-01-24T17:46:13.476Z,78.94
2017-01-24T17:47:22.227Z,79.22
2017-01-24T17:48:31.402Z,79.03
2017-01-24T17:49:40.576Z,78.75
2017-01-24T17:50:49.330Z,79.03
2017-01-24T17:51:58.486Z,79.13
2017-01-24T17:53:07.629Z,79.03
2017-01-24T17:54:16.370Z,79.03
2017-01-24T17:55:26.469Z,79.22
2017-01-24T17:56:36.053Z,79.03
2017-01-24T17:57:45.205Z,78.94
2017-01-24T17:58:54.104Z,79.22
2017-01-24T18:00:03.237Z,78.94
2017-01-24T18:01:12.861Z,79.03
2017-01-24T18:02:22.818Z,78.75
2017-01-24T18:03:31.573Z,78.56
2017-01-24T18:04:40.721Z,78.75
2017-01-24T18:05:49.879Z,78.85
2017-01-24T18:06:58.625Z,78.94
2017-01-24T18:08:07.454Z,79.13
2017-01-24T18:09:17.020Z,78.94
2017-01-24T18:10:25.751Z,78.85
2017-01-24T18:11:34.919Z,78.85
2017-01-24T18:12:44.403Z,79.22
2017-01-24T18:13:53.543Z,79.13
2017-01-24T18:15:02.752Z,79.13
2017-01-24T18:16:12.345Z,78.85
2017-01-24T18:17:21.088Z,78.94
2017-01-24T18:18:30.073Z,79.13
2017-01-24T18:19:38.821Z,78.94
2017-01-24T18:20:48.451Z,78.85
2017-01-24T18:21:57.171Z,78.85
2017-01-24T18:23:07.126Z,79.22
2017-01-24T18:24:16.183Z,78.94
2017-01-24T18:25:24.916Z,79.13
2017-01-24T18:26:33.648Z,79.13
2017-01-24T18:27:42.478Z,79.03
2017-01-24T18:28:51.332Z,79.22
2017-01-24T18:30:00.354Z,79.22
2017-01-24T18:31:09.477Z,78.75
2017-01-24T18:32:18.206Z,79.03
2017-01-24T18:33:27.320Z,78.94
2017-01-24T18:34:36.036Z,79.32
2017-01-24T18:35:45.490Z,78.94
2017-01-24T18:36:54.219Z,78.94
2017-01-24T18:38:03.404Z,78.85
2017-01-24T18:39:12.547Z,79.32
2017-01-24T18:40:21.259Z,78.85
2017-01-24T18:41:30.698Z,79.5
2017-01-24T18:42:40.273Z,79.22
2017-01-24T18:43:49.423Z,79.13
2017-01-24T18:44:58.156Z,78.75
2017-01-24T18:46:06.898Z,78.85
2017-01-24T18:48:25.724Z,78.65
2017-01-24T18:49:37.404Z,78.65
2017-01-24T18:50:56.336Z,78.59
2017-01-24T18:52:18.872Z,78.56
2017-01-24T18:53:43.051Z,78.65
2017-01-24T18:55:07.064Z,78.37
2017-01-24T18:56:31.792Z,78.79
2017-01-24T18:58:01.665Z,78.46
2017-01-24T18:59:21.971Z,78.65
2017-01-24T19:00:41.112Z,78.56
2017-01-24T19:01:57.086Z,78.37
2017-01-24T19:03:11.625Z,77.99
2017-01-24T19:04:25.921Z,78.22
2017-01-24T19:08:03.177Z,77.99
2017-01-24T19:09:11.960Z,77.99
2017-01-24T19:10:21.110Z,77.8
2017-01-24T19:11:29.860Z,78.46
2017-01-24T19:12:39.036Z,77.99
2017-01-24T19:14:59.812Z,78.03
2017-01-24T19:16:09.904Z,78.13
2017-01-24T19:17:18.625Z,78.46
2017-01-24T19:18:27.352Z,78.46
2017-01-24T19:19:36.906Z,78.56
2017-01-24T19:20:46.834Z,78.27
2017-01-24T19:21:55.716Z,78.27
2017-01-24T19:23:05.737Z,78.69
2017-01-24T19:24:14.659Z,78.79
2017-01-24T19:25:25.845Z,78.69
2017-01-24T19:26:36.231Z,78.69
2017-01-24T21:58:32.002Z,76.99
2017-01-24T21:59:40.732Z,77.27
2017-01-24T22:00:49.514Z,77.75
2017-01-24T22:01:58.271Z,77.27
2017-01-24T22:03:07.457Z,77.27
2017-01-24T22:04:16.866Z,77.75
2017-01-24T22:05:26.091Z,77.65
2017-01-24T22:06:34.821Z,77.84
2017-01-24T22:07:44.450Z,77.75
2017-01-24T22:08:53.177Z,77.56
2017-01-24T22:10:03.455Z,77.46
2017-01-24T22:11:12.598Z,77.37
2017-01-24T22:12:21.318Z,77.37
2017-01-24T22:13:30.460Z,77.27
2017-01-24T22:14:39.229Z,77.46
2017-01-24T22:15:48.755Z,77.27
2017-01-24T22:16:57.899Z,77.56
2017-01-24T22:18:07.074Z,77.56
2017-01-24T22:19:17.704Z,77.56
2017-01-24T22:20:27.275Z,77.56
2017-01-24T22:21:36.255Z,77.56
2017-01-24T22:22:45.007Z,77.27
2017-01-24T22:23:54.554Z,77.37
2017-01-24T22:25:03.733Z,77.46
2017-01-24T22:26:12.908Z,77.46
2017-01-24T22:27:22.328Z,77.46
2017-01-24T22:28:31.057Z,77.65
2017-01-24T22:29:40.612Z,77.56
2017-01-24T22:30:49.498Z,77.56
2017-01-24T22:31:58.229Z,77.56
2017-01-24T22:33:07.624Z,77.75
2017-01-24T22:34:16.784Z,77.65
2017-01-24T22:35:26.911Z,77.56
2017-01-24T22:36:36.059Z,77.65
2017-01-24T22:37:44.810Z,77.75
2017-01-24T22:38:54.621Z,77.75
2017-01-24T22:40:03.356Z,77.65
2017-01-24T22:41:12.494Z,76.61
2017-01-24T22:42:21.236Z,76.61
2017-01-24T22:43:29.966Z,76.89
2017-01-24T22:44:38.975Z,77.18
2017-01-24T22:45:47.694Z,76.89
2017-01-24T22:46:56.455Z,76.89
2017-01-24T22:48:05.188Z,76.8
2017-01-24T22:49:14.021Z,76.99
2017-01-24T22:50:23.469Z,76.89
2017-01-24T22:51:32.615Z,76.99
2017-01-24T22:52:42.727Z,77.27
2017-01-24T22:53:51.488Z,76.8
2017-01-24T22:55:00.612Z,77.65
2017-01-24T22:56:10.039Z,77.56
2017-01-24T22:57:18.751Z,77.46
2017-01-24T22:58:27.599Z,77.56
2017-01-24T22:59:36.737Z,77.7
2017-01-24T23:00:45.447Z,77.61
2017-01-24T23:01:54.831Z,77.56
2017-01-24T23:03:03.579Z,77.84
2017-01-24T23:04:12.299Z,77.56
2017-01-24T23:05:21.095Z,77.65
2017-01-24T23:06:29.806Z,77.42
2017-01-24T23:07:39.263Z,77.42
2017-01-24T23:08:48.406Z,77.89
2017-01-24T23:09:57.534Z,77.8
2017-01-24T23:11:06.247Z,78.18
2017-01-24T23:12:14.956Z,77.99
2017-01-24T23:13:23.940Z,77.99
2017-01-24T23:14:32.673Z,78.18
2017-01-24T23:15:41.835Z,77.99
2017-01-24T23:16:50.569Z,78.27
2017-01-24T23:17:59.690Z,78.31
2017-01-24T23:19:09.474Z,78.31
2017-01-24T23:20:18.612Z,78.22
2017-01-24T23:21:27.422Z,78.31
2017-01-24T23:22:36.148Z,78.22
2017-01-24T23:23:44.868Z,78.03
2017-01-24T23:24:54.308Z,78.13
2017-01-24T23:26:03.437Z,78.18
2017-01-24T23:27:12.160Z,78.41
2017-01-24T23:28:20.868Z,78.59
2017-01-24T23:29:29.689Z,78.59
2017-01-24T23:30:38.654Z,78.46
2017-01-24T23:31:47.462Z,78.5
2017-01-24T23:32:56.661Z,78.03
2017-01-24T23:34:05.376Z,78.22
2017-01-24T23:35:14.089Z,78.22
2017-01-24T23:36:23.459Z,78.03
2017-01-24T23:37:32.180Z,78.22
2017-01-24T23:38:41.353Z,78.31
2017-01-24T23:39:50.485Z,78.41
2017-01-24T23:41:00.012Z,78.22
2017-01-24T23:42:08.959Z,78.31
2017-01-24T23:43:17.662Z,78.31
2017-01-24T23:44:26.386Z,77.75
2017-01-24T23:45:35.505Z,77.94
2017-01-24T23:46:44.222Z,78.5
2017-01-24T23:47:53.608Z,78.5
2017-01-24T23:49:02.336Z,77.94
2017-01-24T23:50:11.048Z,78.5
2017-01-24T23:51:19.740Z,78.31
2017-01-24T23:52:28.890Z,78.5
2017-01-24T23:53:37.850Z,78.41
2017-01-24T23:54:46.551Z,78.41
2017-01-24T23:55:55.336Z,78.22
2017-01-24T23:57:04.036Z,78.31
2017-01-24T23:58:12.750Z,78.03
2017-01-24T23:59:21.800Z,78.18
